createdAt,value
2023-04-18T00:02:29.047Z,4.2
2023-04-18T00:05:29.037Z,4.3
2023-04-18T00:08:28.966Z,4.3
2023-04-18T00:11:28.964Z,4.3
2023-04-18T00:14:28.972Z,4.3
2023-04-18T00:17:28.987Z,4.4
2023-04-18T00:20:28.970Z,4.3
2023-04-18T00:23:28.967Z,4.4
2023-04-18T00:26:28.969Z,4.4
2023-04-18T00:29:28.964Z,4.4
2023-04-18T00:32:28.988Z,4.4
2023-04-18T00:35:28.974Z,4.4
2023-04-18T00:38:28.975Z,4.5
2023-04-18T00:41:28.976Z,4.5
2023-04-18T00:44:28.973Z,4.5
2023-04-18T00:47:29.031Z,4.5
2023-04-18T00:50:28.981Z,4.5
2023-04-18T00:53:28.988Z,4.5
2023-04-18T00:56:28.998Z,4.5
2023-04-18T00:59:28.990Z,4.5
2023-04-18T01:02:29.068Z,4.5
2023-04-18T01:05:28.990Z,4.6
2023-04-18T01:08:28.995Z,4.5
2023-04-18T01:11:29.002Z,4.5
2023-04-18T01:14:28.997Z,4.6
2023-04-18T01:17:29.022Z,4.6
2023-04-18T01:20:29.010Z,4.6
2023-04-18T01:23:29.004Z,4.7
2023-04-18T01:26:29.008Z,4.7
2023-04-18T01:29:29.018Z,4.6
2023-04-18T01:32:29.037Z,4.6
2023-04-18T01:35:29.030Z,4.6
2023-04-18T01:38:29.021Z,4.6
2023-04-18T01:41:29.056Z,4.7
2023-04-18T01:44:29.055Z,4.6
2023-04-18T01:47:29.037Z,4.7
2023-04-18T01:50:29.046Z,4.6
2023-04-18T01:53:29.044Z,4.6
2023-04-18T01:56:29.050Z,4.6
2023-04-18T01:59:29.047Z,4.6
2023-04-18T02:02:29.173Z,4.6
2023-04-18T02:05:29.048Z,4.6
2023-04-18T02:08:29.061Z,4.6
2023-04-18T02:11:29.060Z,4.5
2023-04-18T02:14:29.056Z,4.6
2023-04-18T02:17:29.080Z,4.5
2023-04-18T02:20:29.072Z,4.5
2023-04-18T02:23:29.080Z,4.5
2023-04-18T02:26:29.083Z,4.5
2023-04-18T02:29:29.086Z,4.5
2023-04-18T02:32:29.096Z,4.5
2023-04-18T02:35:29.095Z,4.5
2023-04-18T02:38:29.096Z,4.5
2023-04-18T02:41:29.088Z,4.5
2023-04-18T02:44:29.092Z,4.5
2023-04-18T02:47:30.395Z,4.5
2023-04-18T02:50:29.116Z,4.5
2023-04-18T02:53:29.110Z,4.5
2023-04-18T02:56:29.110Z,4.5
2023-04-18T02:59:29.112Z,4.5
2023-04-18T03:02:29.209Z,4.5
2023-04-18T03:05:29.116Z,4.5
2023-04-18T03:08:29.119Z,4.4
2023-04-18T03:11:29.120Z,4.5
2023-04-18T03:14:29.126Z,4.4
2023-04-18T03:17:29.146Z,4.4
2023-04-18T03:20:29.146Z,4.4
2023-04-18T03:23:29.144Z,4.4
2023-04-18T03:26:29.149Z,4.4
2023-04-18T03:29:29.156Z,4.3
2023-04-18T03:32:29.168Z,4.3
2023-04-18T03:35:29.157Z,4.3
2023-04-18T03:38:29.159Z,4.3
2023-04-18T03:41:29.165Z,4.3
2023-04-18T03:44:29.158Z,4.3
2023-04-18T03:47:29.181Z,4.3
2023-04-18T03:50:29.164Z,4.3
2023-04-18T03:53:29.168Z,4.3
2023-04-18T03:56:29.171Z,4.3
2023-04-18T03:59:29.172Z,4.3
2023-04-18T04:02:29.271Z,4.3
2023-04-18T04:05:29.181Z,4.3
2023-04-18T04:08:29.188Z,4.3
2023-04-18T04:11:29.229Z,4.2
2023-04-18T04:14:29.195Z,4.2
2023-04-18T04:17:29.231Z,4.2
2023-04-18T04:20:29.205Z,4.2
2023-04-18T04:23:29.205Z,4.2
2023-04-18T04:26:29.212Z,4.2
2023-04-18T04:29:29.211Z,4.2
2023-04-18T04:32:29.252Z,4.1
2023-04-18T04:35:29.220Z,4.1
2023-04-18T04:38:29.219Z,4.1
2023-04-18T04:41:29.213Z,4.1
2023-04-18T04:44:29.234Z,4.1
2023-04-18T04:47:29.262Z,4.1
2023-04-18T04:50:29.237Z,4
2023-04-18T04:53:29.228Z,4
2023-04-18T04:56:29.243Z,4.1
2023-04-18T04:59:29.247Z,4
2023-04-18T05:02:29.291Z,4.1
2023-04-18T05:05:29.246Z,4.1
2023-04-18T05:08:29.250Z,4.1
2023-04-18T05:11:29.266Z,4.1
2023-04-18T05:14:29.348Z,4
2023-04-18T05:17:29.284Z,4.1
2023-04-18T05:20:29.270Z,4.1
2023-04-18T05:23:29.278Z,4.2
2023-04-18T05:26:29.277Z,4.1
2023-04-18T05:29:29.283Z,4
2023-04-18T05:32:29.310Z,4
2023-04-18T05:35:29.428Z,4
2023-04-18T05:38:29.296Z,4.1
2023-04-18T05:41:29.318Z,4.1
2023-04-18T05:44:29.319Z,4.1
2023-04-18T05:47:29.336Z,4.1
2023-04-18T05:50:29.329Z,4.2
2023-04-18T05:53:29.357Z,4.2
2023-04-18T05:56:29.335Z,4.1
2023-04-18T05:59:29.348Z,4.2
2023-04-18T06:02:29.461Z,4.2
2023-04-18T06:05:29.583Z,4.1
2023-04-18T06:08:29.360Z,4.1
2023-04-18T06:11:29.377Z,4
2023-04-18T06:14:29.375Z,4.1
2023-04-18T06:17:29.386Z,4.2
2023-04-18T06:20:29.377Z,4.2
2023-04-18T06:23:29.384Z,4.3
2023-04-18T06:26:29.391Z,4.4
2023-04-18T06:29:29.398Z,4.3
2023-04-18T06:32:29.410Z,4.3
2023-04-18T06:35:29.406Z,4.4
2023-04-18T06:38:29.413Z,4.4
2023-04-18T06:41:29.419Z,4.3
2023-04-18T06:44:29.420Z,4.3
2023-04-18T06:47:29.438Z,4.3
2023-04-18T06:50:29.497Z,4.3
2023-04-18T06:53:29.437Z,4.3
2023-04-18T06:56:29.446Z,4.3
2023-04-18T06:59:29.448Z,4.5
2023-04-18T07:02:29.532Z,4.5
2023-04-18T07:05:29.466Z,4.5
2023-04-18T07:08:29.498Z,4.6
2023-04-18T07:11:29.473Z,4.5
2023-04-18T07:14:29.477Z,4.6
2023-04-18T07:17:29.494Z,4.8
2023-04-18T07:20:29.529Z,4.8
2023-04-18T07:23:29.482Z,4.9
2023-04-18T07:26:29.488Z,4.8
2023-04-18T07:29:29.507Z,4.8
2023-04-18T07:32:29.528Z,5.1
2023-04-18T07:35:29.504Z,5
2023-04-18T07:38:29.504Z,5
2023-04-18T07:41:29.507Z,5.1
2023-04-18T07:44:29.517Z,5.1
2023-04-18T07:47:30.516Z,5.2
2023-04-18T07:50:29.523Z,5.3
2023-04-18T07:53:29.524Z,5.2
2023-04-18T07:56:29.530Z,5.3
2023-04-18T07:59:29.534Z,5.4
2023-04-18T08:02:29.637Z,5.4
2023-04-18T08:05:29.570Z,5.2
2023-04-18T08:08:29.541Z,5.1
2023-04-18T08:11:29.552Z,5.2
2023-04-18T08:14:29.545Z,5.3
2023-04-18T08:17:29.575Z,5.4
2023-04-18T08:20:29.572Z,5.3
2023-04-18T08:23:29.567Z,5.3
2023-04-18T08:26:29.574Z,5.6
2023-04-18T08:29:29.585Z,5.5
2023-04-18T08:32:29.586Z,5.5
2023-04-18T08:35:29.580Z,5.7
2023-04-18T08:38:29.582Z,5.6
2023-04-18T08:41:29.594Z,5.8
2023-04-18T08:44:29.597Z,5.8
2023-04-18T08:47:29.595Z,5.6
2023-04-18T08:50:29.598Z,5.5
2023-04-18T08:53:29.608Z,5.5
2023-04-18T08:56:29.605Z,5.3
2023-04-18T08:59:29.618Z,5.1
2023-04-18T09:02:29.634Z,5
2023-04-18T09:05:29.629Z,5.1
2023-04-18T09:08:29.623Z,5.2
2023-04-18T09:11:29.775Z,5
2023-04-18T09:14:29.642Z,4.9
2023-04-18T09:17:29.659Z,4.9
2023-04-18T09:20:29.648Z,4.9
2023-04-18T09:23:29.659Z,4.9
2023-04-18T09:26:29.661Z,4.9
2023-04-18T09:29:29.667Z,4.7
2023-04-18T09:32:29.741Z,4.7
2023-04-18T09:35:29.679Z,4.8
2023-04-18T09:38:29.677Z,4.8
2023-04-18T09:41:29.677Z,4.8
2023-04-18T09:44:29.682Z,4.9
2023-04-18T09:47:29.679Z,5.2
2023-04-18T09:50:29.696Z,5.3
2023-04-18T09:53:29.692Z,5.1
2023-04-18T09:56:29.698Z,5
2023-04-18T09:59:29.694Z,5.1
2023-04-18T10:02:29.734Z,5.1
2023-04-18T10:05:29.749Z,5
2023-04-18T10:08:29.698Z,4.9
2023-04-18T10:11:29.718Z,5.1
2023-04-18T10:14:29.722Z,5
2023-04-18T10:17:29.907Z,5
2023-04-18T10:20:29.724Z,5
2023-04-18T10:23:29.722Z,5.1
2023-04-18T10:26:29.735Z,5
2023-04-18T10:29:29.735Z,5
2023-04-18T10:32:29.775Z,4.9
2023-04-18T10:35:29.724Z,4.8
2023-04-18T10:38:29.745Z,4.9
2023-04-18T10:41:29.740Z,5
2023-04-18T10:44:29.739Z,5
2023-04-18T10:47:29.813Z,5.2
2023-04-18T10:50:29.742Z,5
2023-04-18T10:53:29.767Z,5
2023-04-18T10:56:29.782Z,5.3
2023-04-18T10:59:29.772Z,5.2
2023-04-18T11:02:30.014Z,5.3
2023-04-18T11:05:29.772Z,5.3
2023-04-18T11:08:29.784Z,5.6
2023-04-18T11:11:29.778Z,5.5
2023-04-18T11:14:29.778Z,5.5
2023-04-18T11:17:29.826Z,5.5
2023-04-18T11:20:29.801Z,5.3
2023-04-18T11:23:29.800Z,5.4
2023-04-18T11:26:29.797Z,5.5
2023-04-18T11:29:29.796Z,5.5
2023-04-18T11:32:29.910Z,5.6
2023-04-18T11:35:29.812Z,5.8
2023-04-18T11:38:29.809Z,6
2023-04-18T11:41:29.805Z,5.8
2023-04-18T11:44:29.803Z,5.8
2023-04-18T11:47:29.858Z,5.7
2023-04-18T11:50:29.831Z,5.6
2023-04-18T11:53:29.830Z,5.4
2023-04-18T11:56:29.847Z,5.4
2023-04-18T11:59:29.835Z,5.7
2023-04-18T12:02:29.887Z,6.3
2023-04-18T12:05:29.995Z,6.7
2023-04-18T12:08:29.850Z,6.6
2023-04-18T12:11:29.843Z,6.8
2023-04-18T12:14:29.864Z,6.9
2023-04-18T12:17:29.898Z,6.7
2023-04-18T12:20:29.876Z,6.8
2023-04-18T12:23:29.892Z,7.1
2023-04-18T12:26:29.890Z,6.5
2023-04-18T12:29:29.895Z,6.8
2023-04-18T12:32:29.946Z,6.7
2023-04-18T12:35:29.933Z,6.9
2023-04-18T12:38:29.907Z,7
2023-04-18T12:41:29.925Z,7
2023-04-18T12:44:29.931Z,7
2023-04-18T12:47:29.963Z,7.2
2023-04-18T12:50:29.947Z,7.3
2023-04-18T12:53:29.940Z,7.1
2023-04-18T12:56:29.971Z,7.2
2023-04-18T12:59:30.011Z,7.1
2023-04-18T13:02:30.129Z,7
2023-04-18T13:05:32.754Z,7.1
2023-04-18T13:08:29.986Z,7
2023-04-18T13:11:30.014Z,7
2023-04-18T13:14:30.011Z,7.1
2023-04-18T13:17:30.046Z,7
2023-04-18T13:20:30.035Z,7.3
2023-04-18T13:23:30.040Z,7.6
2023-04-18T13:26:30.050Z,7.7
2023-04-18T13:29:30.072Z,7.6
2023-04-18T13:32:30.096Z,7.6
2023-04-18T13:35:30.077Z,7.4
2023-04-18T13:38:30.070Z,7.4
2023-04-18T13:41:30.095Z,7.4
2023-04-18T13:44:30.088Z,7.5
2023-04-18T13:47:30.166Z,7.4
2023-04-18T13:50:30.121Z,7.4
2023-04-18T13:53:30.981Z,7.4
2023-04-18T13:56:30.136Z,7.6
2023-04-18T13:59:30.148Z,7.6
2023-04-18T14:02:30.272Z,7.7
2023-04-18T14:05:30.149Z,7.7
2023-04-18T14:08:30.171Z,7.5
2023-04-18T14:11:30.193Z,7.6
2023-04-18T14:14:30.185Z,7.7
2023-04-18T14:17:30.222Z,7.9
2023-04-18T14:20:30.205Z,7.8
2023-04-18T14:23:30.206Z,7.6
2023-04-18T14:26:30.220Z,7.6
2023-04-18T14:29:30.263Z,7.7
2023-04-18T14:32:30.289Z,7.6
2023-04-18T14:35:30.275Z,7.6
2023-04-18T14:38:30.270Z,7.5
2023-04-18T14:41:30.295Z,7.6
2023-04-18T14:44:30.313Z,7.7
2023-04-18T14:47:30.320Z,7.7
2023-04-18T14:50:30.336Z,7.8
2023-04-18T14:53:30.337Z,7.7
2023-04-18T14:56:30.344Z,7.8
2023-04-18T14:59:30.357Z,7.7
2023-04-18T15:02:30.484Z,7.8
2023-04-18T15:05:30.367Z,7.8
2023-04-18T15:08:32.066Z,7.9
2023-04-18T15:11:30.373Z,7.9
2023-04-18T15:14:31.190Z,8
2023-04-18T15:17:30.399Z,8.1
2023-04-18T15:20:30.419Z,8
2023-04-18T15:23:30.394Z,8
2023-04-18T15:26:32.408Z,8.1
2023-04-18T15:29:30.408Z,8
2023-04-18T15:32:30.455Z,8.1
2023-04-18T15:35:30.476Z,8.1
2023-04-18T15:38:32.330Z,8
2023-04-18T15:41:30.439Z,8
2023-04-18T15:44:30.430Z,8.1
2023-04-18T15:47:30.428Z,8.1
2023-04-18T15:50:32.154Z,8.1
2023-04-18T15:53:30.454Z,8.2
2023-04-18T15:56:32.569Z,8.1
2023-04-18T15:59:30.449Z,8.1
2023-04-18T16:02:30.586Z,8.1
2023-04-18T16:05:30.482Z,8.1
2023-04-18T16:08:32.691Z,8
2023-04-18T16:11:30.475Z,8
2023-04-18T16:14:30.534Z,8
2023-04-18T16:17:30.487Z,8.1
2023-04-18T16:20:30.500Z,8.1
2023-04-18T16:23:30.484Z,8.2
2023-04-18T16:26:30.553Z,8.2
2023-04-18T16:29:30.504Z,8.3
2023-04-18T16:32:30.626Z,8.2
2023-04-18T16:35:30.518Z,8.2
2023-04-18T16:38:30.574Z,8.2
2023-04-18T16:41:30.560Z,8.1
2023-04-18T16:44:30.567Z,8.1
2023-04-18T16:47:30.625Z,8.2
2023-04-18T16:50:30.541Z,8.2
2023-04-18T16:53:30.546Z,8.2
2023-04-18T16:56:30.545Z,8.1
2023-04-18T16:59:30.561Z,8
2023-04-18T17:02:30.664Z,8
2023-04-18T17:05:30.588Z,7.8
2023-04-18T17:08:30.569Z,7.8
2023-04-18T17:11:30.565Z,7.9
2023-04-18T17:14:30.571Z,7.8
2023-04-18T17:17:30.670Z,7.8
2023-04-18T17:20:30.571Z,7.7
2023-04-18T17:23:32.757Z,7.5
2023-04-18T17:26:30.598Z,7.4
2023-04-18T17:29:30.594Z,7.3
2023-04-18T17:32:30.627Z,7.2
2023-04-18T17:35:30.589Z,7.3
2023-04-18T17:38:30.591Z,7.3
2023-04-18T17:41:30.591Z,7.2
2023-04-18T17:44:30.593Z,7.2
2023-04-18T17:47:30.625Z,7.3
2023-04-18T17:50:30.613Z,7.3
2023-04-18T17:53:32.122Z,7.2
2023-04-18T17:56:30.620Z,7
2023-04-18T17:59:30.628Z,6.9
2023-04-18T18:02:30.792Z,6.8
2023-04-18T18:05:30.687Z,6.5
2023-04-18T18:08:30.658Z,6.4
2023-04-18T18:11:30.647Z,6.3
2023-04-18T18:14:30.669Z,6.3
2023-04-18T18:17:30.683Z,6.3
2023-04-18T18:20:30.668Z,6.4
2023-04-18T18:23:30.671Z,6.3
2023-04-18T18:26:30.670Z,6.3
2023-04-18T18:29:30.686Z,6.3
2023-04-18T18:32:30.785Z,6.3
2023-04-18T18:35:30.684Z,6.3
2023-04-18T18:38:30.699Z,6.3
2023-04-18T18:41:30.694Z,6.1
2023-04-18T18:44:30.700Z,6
2023-04-18T18:47:30.793Z,6
2023-04-18T18:50:30.708Z,6
2023-04-18T18:53:30.716Z,5.9
2023-04-18T18:56:30.722Z,5.9
2023-04-18T18:59:30.739Z,5.9
2023-04-18T19:02:30.957Z,5.9
2023-04-18T19:05:30.742Z,5.9
2023-04-18T19:08:30.745Z,5.9
2023-04-18T19:11:30.749Z,6
2023-04-18T19:14:30.759Z,5.9
2023-04-18T19:17:30.783Z,6
2023-04-18T19:20:30.773Z,5.9
2023-04-18T19:23:30.777Z,5.9
2023-04-18T19:26:30.786Z,5.8
2023-04-18T19:29:32.692Z,5.8
2023-04-18T19:32:30.834Z,5.7
2023-04-18T19:35:30.796Z,5.7
2023-04-18T19:38:30.807Z,5.7
2023-04-18T19:41:30.824Z,5.7
2023-04-18T19:44:30.844Z,5.5
2023-04-18T19:47:30.876Z,5.4
2023-04-18T19:50:30.897Z,5.2
2023-04-18T19:53:30.913Z,5.2
2023-04-18T19:56:30.905Z,5.2
2023-04-18T19:59:30.900Z,5.2
2023-04-18T20:02:30.992Z,5.2
2023-04-18T20:05:30.956Z,5.1
2023-04-18T20:08:30.900Z,5.1
2023-04-18T20:11:30.909Z,5.1
2023-04-18T20:14:30.913Z,5.1
2023-04-18T20:17:30.929Z,5
2023-04-18T20:20:30.902Z,5
2023-04-18T20:23:30.908Z,5
2023-04-18T20:26:30.910Z,5
2023-04-18T20:29:30.920Z,4.9
2023-04-18T20:32:30.921Z,4.7
2023-04-18T20:35:30.916Z,4.6
2023-04-18T20:38:30.905Z,4.3
2023-04-18T20:41:30.915Z,3.8
2023-04-18T20:44:30.924Z,3.3
2023-04-18T20:47:30.936Z,2.9
2023-04-18T20:50:30.915Z,2.9
2023-04-18T20:53:30.919Z,2.8
2023-04-18T20:56:30.926Z,2.6
2023-04-18T20:59:30.925Z,2.6
2023-04-18T21:02:30.981Z,2.6
2023-04-18T21:05:30.916Z,2.6
2023-04-18T21:08:30.923Z,2.6
2023-04-18T21:11:30.939Z,2.6
2023-04-18T21:14:30.943Z,2.7
2023-04-18T21:17:30.947Z,2.7
2023-04-18T21:20:30.939Z,2.8
2023-04-18T21:23:30.966Z,2.8
2023-04-18T21:26:30.943Z,2.8
2023-04-18T21:29:30.933Z,2.9
2023-04-18T21:32:30.954Z,2.9
2023-04-18T21:35:30.931Z,3
2023-04-18T21:38:30.933Z,3.1
2023-04-18T21:41:30.951Z,3.1
2023-04-18T21:44:30.952Z,3.1
2023-04-18T21:47:30.971Z,3.1
2023-04-18T21:50:30.951Z,3.2
2023-04-18T21:53:30.956Z,3.1
2023-04-18T21:56:30.942Z,2.9
2023-04-18T21:59:30.965Z,2.5
2023-04-18T22:02:31.008Z,2.1
2023-04-18T22:05:30.946Z,1.8
2023-04-18T22:08:30.950Z,1.4
2023-04-18T22:11:30.953Z,0.7
2023-04-18T22:14:30.955Z,0.4
2023-04-18T22:17:30.981Z,0.2
2023-04-18T22:20:30.960Z,0
2023-04-18T22:23:30.986Z,-0.1
2023-04-18T22:26:30.985Z,0.1
2023-04-18T22:29:30.983Z,0.3
2023-04-18T22:32:31.009Z,0.4
2023-04-18T22:35:31.001Z,0.3
2023-04-18T22:38:30.991Z,0.1
2023-04-18T22:41:30.987Z,-0.2
2023-04-18T22:44:30.990Z,-0.3
2023-04-18T22:47:31.033Z,-0.2
2023-04-18T22:50:31.013Z,-0.4
2023-04-18T22:53:31.005Z,-0.5
2023-04-18T22:56:31.016Z,-0.5
2023-04-18T22:59:31.020Z,-0.4
2023-04-18T23:02:31.140Z,-0.5
2023-04-18T23:05:31.027Z,-0.5
2023-04-18T23:08:31.039Z,-0.5
2023-04-18T23:11:31.044Z,-0.4
2023-04-18T23:14:31.058Z,-0.4
2023-04-18T23:17:31.103Z,-0.4
2023-04-18T23:20:31.079Z,-0.3
2023-04-18T23:23:31.081Z,-0.3
2023-04-18T23:26:31.081Z,-0.2
2023-04-18T23:29:31.103Z,-0.2
2023-04-18T23:32:31.128Z,-0.1
2023-04-18T23:35:31.095Z,-0.1
2023-04-18T23:38:31.114Z,-0.1
2023-04-18T23:41:31.117Z,-0.1
2023-04-18T23:44:31.116Z,0
2023-04-18T23:47:31.171Z,0
2023-04-18T23:50:31.138Z,-0.1
2023-04-18T23:53:31.139Z,-0.1
2023-04-18T23:56:31.146Z,-0.1
2023-04-18T23:59:31.157Z,-0.1
